Roza A — TCRB7 — position and weather

sailwx.info

Track history (hours):
 
Tides and Currents Weather Stations Pressure Air Temp Water Temp Dewpoint Dewpoint Depression Visibility Wind Speed Wind Dir Waves Ship Positions

Roza A

Last reported at 2016-Jul-25 01:33 UTC. Time now 2016-Jul-25 02:22 UTC.
Position N 36°51' E 023°34'.

Length 169 m; draft 8.6 m.

Type: Ship (hazmat cat A). MMSI: 271001057.

Date/timePositionNaut miles runAvg speedWind from/ knotsBaromVisibWave heightAir tempDewpointWater temp
2016-Jul-25 01:33N 36°51' E 023°34'1614.5
2016-Jul-25 00:27N 36°37' E 023°24'33414.5
2016-Jul-24 01:24N 36°30' E 016°28'1214.5
2016-Jul-24 00:33N 36°30' E 016°13'1514.6
2016-Jul-23 23:34N 36°31' E 015°55'1514.6
2016-Jul-23 22:33N 36°31' E 015°37'1514.6
2016-Jul-23 21:32N 36°32' E 015°18'1514.8
2016-Jul-23 20:33N 36°33' E 015°00'1514.8
2016-Jul-23 19:34N 36°37' E 014°43'1414.4
2016-Jul-23 18:34N 36°41' E 014°25'1514.5
2016-Jul-23 17:34N 36°47' E 014°09'1615.6
2016-Jul-23 16:34N 36°53' E 013°51'1515.4
2016-Jul-23 15:34N 36°58' E 013°33'1515.1
2016-Jul-23 14:34N 37°05' E 013°16'1515.4
2016-Jul-23 13:33N 37°12' E 012°58'1914.9
2016-Jul-23 12:15N 37°21' E 012°37'1014.8
2016-Jul-23 11:34N 37°26' E 012°26'1515.4
2016-Jul-23 10:34N 37°35' E 012°10'1515.0
2016-Jul-23 09:34N 37°44' E 011°55'1514.8
2016-Jul-23 08:34N 37°52' E 011°39'1515.1
2016-Jul-23 07:33N 38°01' E 011°23'1515.2
2016-Jul-23 06:33N 38°09' E 011°07'3015.1
2016-Jul-23 04:34N 38°25' E 010°34'1614.8
2016-Jul-23 03:29N 38°33' E 010°17'4314.6
2016-Jul-23 00:33N 38°55' E 009°30'1514.9
2016-Jul-22 23:33N 39°03' E 009°14'1110.8
2016-Jul-22 22:33N 39°12' E 009°05'1 1.4
2016-Jul-22 21:31N 39°13' E 009°04'0 0.0
2016-Jul-22 20:31N 39°13' E 009°04'0 0.0
2016-Jul-22 19:31N 39°13' E 009°04'0 0.0
2016-Jul-22 18:31N 39°13' E 009°04'0 0.0
2016-Jul-22 17:31N 39°13' E 009°04'0 0.0
2016-Jul-22 16:31N 39°13' E 009°04'1 1.5
2016-Jul-22 15:33N 39°12' E 009°05'1211.7
2016-Jul-22 14:33N 39°00' E 009°07'1414.3
2016-Jul-22 13:33N 38°50' E 008°55'2813.7
2016-Jul-22 11:32N 38°47' E 008°20'1514.4
2016-Jul-22 10:30N 38°57' E 008°05'18214.9
2016-Jul-21 22:19N 41°36' E 006°10'1215.1
2016-Jul-21 21:34N 41°46' E 006°02'1515.1
2016-Jul-21 20:33N 41°59' E 005°53'1515.2
2016-Jul-21 19:33N 42°13' E 005°43'1514.8
2016-Jul-21 18:34N 42°26' E 005°34'1514.8
2016-Jul-21 17:33N 42°39' E 005°24'1514.6
2016-Jul-21 16:33N 42°52' E 005°14'1414.6
2016-Jul-21 15:33N 43°05' E 005°05'1514.7
2016-Jul-21 14:33N 43°18' E 004°59'8 8.3
2016-Jul-21 13:33N 43°24' E 004°51'0 0.0
2016-Jul-21 12:33N 43°24' E 004°51'0 0.0
2016-Jul-21 11:15N 43°24' E 004°51'0 0.0
2016-Jul-21 10:33N 43°24' E 004°51'0 0.0
2016-Jul-21 09:30N 43°24' E 004°51'1 0.0
2016-Jul-20 16:23N 43°24' E 004°52'7 8.3
2016-Jul-20 15:33N 43°20' E 004°59'1212.0
2016-Jul-20 14:33N 43°08' E 005°01'1715.5
2016-Jul-20 13:30N 42°55' E 004°46'1715.1
2016-Jul-20 12:23N 42°43' E 004°31'1214.9
2016-Jul-20 11:32N 42°33' E 004°19'1615.3
2016-Jul-20 10:30N 42°21' E 004°05'1815.5
2016-Jul-20 09:20N 42°08' E 003°49'1715.3
2016-Jul-20 08:15N 41°55' E 003°34'1115.5
2016-Jul-20 07:32N 41°48' E 003°23'1616.3
2016-Jul-20 06:33N 41°40' E 003°05'4715.6
2016-Jul-20 03:33N 41°16' E 002°11'5 2.3
2016-Jul-20 01:14N 41°21' E 002°10'0 0.0
2016-Jul-19 23:29N 41°21' E 002°10'0 0.0
2016-Jul-19 17:29N 41°21' E 002°10'0 0.0
2016-Jul-19 16:29N 41°21' E 002°10'0 0.0
2016-Jul-19 15:29N 41°21' E 002°10'0 0.0
2016-Jul-19 14:23N 41°21' E 002°10'0 0.3
2016-Jul-19 13:32N 41°21' E 002°10'7 6.4
2016-Jul-19 12:23N 41°14' E 002°10'0 0.5
2016-Jul-19 11:20N 41°13' E 002°10'0 0.4
2016-Jul-19 10:33N 41°13' E 002°10'1311.4
2016-Jul-19 09:25N 41°04' E 001°59'2015.1
2016-Jul-19 08:06N 40°49' E 001°41'915.4
2016-Jul-19 07:30N 40°41' E 001°34'4515.4
2016-Jul-19 04:33N 40°16' E 000°45'1515.3
2016-Jul-19 03:33N 40°08' E 000°28'1515.3
2016-Jul-19 02:33N 39°59' E 000°11'4 0.2
2016-Jul-17 21:32N 39°58' E 000°06'0 0.0
2016-Jul-17 20:26N 39°58' E 000°06'0 0.0
2016-Jul-17 19:08N 39°58' E 000°06'0 0.3
2016-Jul-17 18:33N 39°58' E 000°06'11 9.4
2016-Jul-17 17:22N 39°47' E 000°05'1516.1
2016-Jul-17 16:27N 39°34' W 000°05'1314.2
2016-Jul-17 15:33N 39°26' W 000°18'2 1.9
2016-Jul-17 14:32N 39°27' W 000°19'0 0.0
2016-Jul-17 13:32N 39°27' W 000°19'0 0.0
2016-Jul-17 12:32N 39°27' W 000°19'0 0.0
2016-Jul-17 11:32N 39°27' W 000°19'0 0.0
2016-Jul-17 10:32N 39°27' W 000°19'0 0.0
2016-Jul-17 09:32N 39°27' W 000°19'0 0.0
2016-Jul-17 08:32N 39°27' W 000°19'0 0.0
2016-Jul-17 07:29N 39°27' W 000°19'0 0.0
2016-Jul-17 06:32N 39°27' W 000°19'0 0.0
2016-Jul-17 04:32N 39°27' W 000°19'0 0.0
2016-Jul-17 03:32N 39°27' W 000°19'0 0.0
2016-Jul-17 02:32N 39°27' W 000°19'0 0.0
2016-Jul-17 01:32N 39°27' W 000°19'0 0.0
2016-Jul-17 00:32N 39°27' W 000°19'0 0.0
2016-Jul-16 23:32N 39°27' W 000°19'0 0.0
2016-Jul-16 22:29N 39°27' W 000°19'0 0.0
2016-Jul-16 21:32N 39°27' W 000°19'0 0.0
2016-Jul-16 20:32N 39°27' W 000°19'0 0.0
2016-Jul-16 19:32N 39°27' W 000°19'0 0.0
2016-Jul-16 18:32N 39°27' W 000°19'0 0.0
2016-Jul-16 17:32N 39°27' W 000°19'0 0.0
2016-Jul-16 16:32N 39°27' W 000°19'0 0.0
2016-Jul-16 15:32N 39°27' W 000°19'0 0.0
2016-Jul-16 14:32N 39°27' W 000°19'0 0.0
2016-Jul-16 13:32N 39°27' W 000°19'0 0.0
2016-Jul-16 12:32N 39°27' W 000°19'0 0.0
2016-Jul-16 11:29N 39°27' W 000°19'0 0.0
2016-Jul-16 10:32N 39°27' W 000°19'0 0.0
2016-Jul-16 09:32N 39°27' W 000°19'0 0.0
2016-Jul-16 08:20N 39°27' W 000°19'0 0.0
2016-Jul-16 07:20N 39°27' W 000°19'0 0.0
2016-Jul-16 06:29N 39°27' W 000°19'0 0.0
2016-Jul-16 04:32N 39°27' W 000°19'0 0.0
2016-Jul-16 03:32N 39°27' W 000°19'0 0.0
2016-Jul-16 02:32N 39°27' W 000°19'0 0.0
2016-Jul-16 01:32N 39°27' W 000°19'0 0.0
2016-Jul-16 00:32N 39°27' W 000°19'0 0.0
2016-Jul-15 23:30N 39°27' W 000°19'4 3.8
2016-Jul-15 22:33N 39°25' W 000°16'1 0.2
2016-Jul-15 17:33N 39°24' W 000°15'0 0.0
2016-Jul-15 14:33N 39°24' W 000°15'0 0.0
2016-Jul-15 13:30N 39°24' W 000°15'0 0.0
2016-Jul-15 12:33N 39°24' W 000°15'0 0.0
2016-Jul-15 11:06N 39°24' W 000°15'0 0.0
2016-Jul-15 10:24N 39°24' W 000°15'0 0.0
2016-Jul-15 09:33N 39°24' W 000°15'0 0.0
2016-Jul-15 08:30N 39°24' W 000°15'0 0.0
2016-Jul-15 07:12N 39°24' W 000°15'0 0.0
2016-Jul-15 06:30N 39°24' W 000°15'0 0.0
2016-Jul-15 05:24N 39°24' W 000°15'0 0.0
2016-Jul-15 04:30N 39°24' W 000°15'0 0.0
2016-Jul-15 03:33N 39°24' W 000°15'0 0.1
2016-Jul-15 02:27N 39°24' W 000°15'  
Track history (hours):
 
Tides and Currents Weather Stations Pressure Air Temp Water Temp Dewpoint Dewpoint Depression Visibility Wind Speed Wind Dir Waves Ship Positions

Roza A

Last reported at 2016-Jul-25 01:33 UTC. Time now 2016-Jul-25 02:22 UTC.
Position N 36°51' E 023°34'.

Length 169 m; draft 8.6 m.

Type: Ship (hazmat cat A). MMSI: 271001057.

Date/timePositionNaut miles runAvg speedWind from/ knotsBaromVisibWave heightAir tempDewpointWater temp
2016-Jul-25 01:33N 36°51' E 023°34'1614.5
2016-Jul-25 00:27N 36°37' E 023°24'33414.5
2016-Jul-24 01:24N 36°30' E 016°28'1214.5
2016-Jul-24 00:33N 36°30' E 016°13'1514.6
2016-Jul-23 23:34N 36°31' E 015°55'1514.6
2016-Jul-23 22:33N 36°31' E 015°37'1514.6
2016-Jul-23 21:32N 36°32' E 015°18'1514.8
2016-Jul-23 20:33N 36°33' E 015°00'1514.8
2016-Jul-23 19:34N 36°37' E 014°43'1414.4
2016-Jul-23 18:34N 36°41' E 014°25'1514.5
2016-Jul-23 17:34N 36°47' E 014°09'1615.6
2016-Jul-23 16:34N 36°53' E 013°51'1515.4
2016-Jul-23 15:34N 36°58' E 013°33'1515.1
2016-Jul-23 14:34N 37°05' E 013°16'1515.4
2016-Jul-23 13:33N 37°12' E 012°58'1914.9
2016-Jul-23 12:15N 37°21' E 012°37'1014.8
2016-Jul-23 11:34N 37°26' E 012°26'1515.4
2016-Jul-23 10:34N 37°35' E 012°10'1515.0
2016-Jul-23 09:34N 37°44' E 011°55'1514.8
2016-Jul-23 08:34N 37°52' E 011°39'1515.1
2016-Jul-23 07:33N 38°01' E 011°23'1515.2
2016-Jul-23 06:33N 38°09' E 011°07'3015.1
2016-Jul-23 04:34N 38°25' E 010°34'1614.8
2016-Jul-23 03:29N 38°33' E 010°17'4314.6
2016-Jul-23 00:33N 38°55' E 009°30'1514.9
2016-Jul-22 23:33N 39°03' E 009°14'1110.8
2016-Jul-22 22:33N 39°12' E 009°05'1 1.4
2016-Jul-22 21:31N 39°13' E 009°04'0 0.0
2016-Jul-22 20:31N 39°13' E 009°04'0 0.0
2016-Jul-22 19:31N 39°13' E 009°04'0 0.0
2016-Jul-22 18:31N 39°13' E 009°04'0 0.0
2016-Jul-22 17:31N 39°13' E 009°04'0 0.0
2016-Jul-22 16:31N 39°13' E 009°04'1 1.5
2016-Jul-22 15:33N 39°12' E 009°05'1211.7
2016-Jul-22 14:33N 39°00' E 009°07'1414.3
2016-Jul-22 13:33N 38°50' E 008°55'2813.7
2016-Jul-22 11:32N 38°47' E 008°20'1514.4
2016-Jul-22 10:30N 38°57' E 008°05'18214.9
2016-Jul-21 22:19N 41°36' E 006°10'1215.1
2016-Jul-21 21:34N 41°46' E 006°02'1515.1
2016-Jul-21 20:33N 41°59' E 005°53'1515.2
2016-Jul-21 19:33N 42°13' E 005°43'1514.8
2016-Jul-21 18:34N 42°26' E 005°34'1514.8
2016-Jul-21 17:33N 42°39' E 005°24'1514.6
2016-Jul-21 16:33N 42°52' E 005°14'1414.6
2016-Jul-21 15:33N 43°05' E 005°05'1514.7
2016-Jul-21 14:33N 43°18' E 004°59'8 8.3
2016-Jul-21 13:33N 43°24' E 004°51'0 0.0
2016-Jul-21 12:33N 43°24' E 004°51'0 0.0
2016-Jul-21 11:15N 43°24' E 004°51'0 0.0
2016-Jul-21 10:33N 43°24' E 004°51'0 0.0
2016-Jul-21 09:30N 43°24' E 004°51'1 0.0
2016-Jul-20 16:23N 43°24' E 004°52'7 8.3
2016-Jul-20 15:33N 43°20' E 004°59'1212.0
2016-Jul-20 14:33N 43°08' E 005°01'1715.5
2016-Jul-20 13:30N 42°55' E 004°46'1715.1
2016-Jul-20 12:23N 42°43' E 004°31'1214.9
2016-Jul-20 11:32N 42°33' E 004°19'1615.3
2016-Jul-20 10:30N 42°21' E 004°05'1815.5
2016-Jul-20 09:20N 42°08' E 003°49'1715.3
2016-Jul-20 08:15N 41°55' E 003°34'1115.5
2016-Jul-20 07:32N 41°48' E 003°23'1616.3
2016-Jul-20 06:33N 41°40' E 003°05'4715.6
2016-Jul-20 03:33N 41°16' E 002°11'5 2.3
2016-Jul-20 01:14N 41°21' E 002°10'0 0.0
2016-Jul-19 23:29N 41°21' E 002°10'0 0.0
2016-Jul-19 17:29N 41°21' E 002°10'0 0.0
2016-Jul-19 16:29N 41°21' E 002°10'0 0.0
2016-Jul-19 15:29N 41°21' E 002°10'0 0.0
2016-Jul-19 14:23N 41°21' E 002°10'0 0.3
2016-Jul-19 13:32N 41°21' E 002°10'7 6.4
2016-Jul-19 12:23N 41°14' E 002°10'0 0.5
2016-Jul-19 11:20N 41°13' E 002°10'0 0.4
2016-Jul-19 10:33N 41°13' E 002°10'1311.4
2016-Jul-19 09:25N 41°04' E 001°59'2015.1
2016-Jul-19 08:06N 40°49' E 001°41'915.4
2016-Jul-19 07:30N 40°41' E 001°34'4515.4
2016-Jul-19 04:33N 40°16' E 000°45'1515.3
2016-Jul-19 03:33N 40°08' E 000°28'1515.3
2016-Jul-19 02:33N 39°59' E 000°11'4 0.2
2016-Jul-17 21:32N 39°58' E 000°06'0 0.0
2016-Jul-17 20:26N 39°58' E 000°06'0 0.0
2016-Jul-17 19:08N 39°58' E 000°06'0 0.3
2016-Jul-17 18:33N 39°58' E 000°06'11 9.4
2016-Jul-17 17:22N 39°47' E 000°05'1516.1
2016-Jul-17 16:27N 39°34' W 000°05'1314.2
2016-Jul-17 15:33N 39°26' W 000°18'2 1.9
2016-Jul-17 14:32N 39°27' W 000°19'0 0.0
2016-Jul-17 13:32N 39°27' W 000°19'0 0.0
2016-Jul-17 12:32N 39°27' W 000°19'0 0.0
2016-Jul-17 11:32N 39°27' W 000°19'0 0.0
2016-Jul-17 10:32N 39°27' W 000°19'0 0.0
2016-Jul-17 09:32N 39°27' W 000°19'0 0.0
2016-Jul-17 08:32N 39°27' W 000°19'0 0.0
2016-Jul-17 07:29N 39°27' W 000°19'0 0.0
2016-Jul-17 06:32N 39°27' W 000°19'0 0.0
2016-Jul-17 04:32N 39°27' W 000°19'0 0.0
2016-Jul-17 03:32N 39°27' W 000°19'0 0.0
2016-Jul-17 02:32N 39°27' W 000°19'0 0.0
2016-Jul-17 01:32N 39°27' W 000°19'0 0.0
2016-Jul-17 00:32N 39°27' W 000°19'0 0.0
2016-Jul-16 23:32N 39°27' W 000°19'0 0.0
2016-Jul-16 22:29N 39°27' W 000°19'0 0.0
2016-Jul-16 21:32N 39°27' W 000°19'0 0.0
2016-Jul-16 20:32N 39°27' W 000°19'0 0.0
2016-Jul-16 19:32N 39°27' W 000°19'0 0.0
2016-Jul-16 18:32N 39°27' W 000°19'0 0.0
2016-Jul-16 17:32N 39°27' W 000°19'0 0.0
2016-Jul-16 16:32N 39°27' W 000°19'0 0.0
2016-Jul-16 15:32N 39°27' W 000°19'0 0.0
2016-Jul-16 14:32N 39°27' W 000°19'0 0.0
2016-Jul-16 13:32N 39°27' W 000°19'0 0.0
2016-Jul-16 12:32N 39°27' W 000°19'0 0.0
2016-Jul-16 11:29N 39°27' W 000°19'0 0.0
2016-Jul-16 10:32N 39°27' W 000°19'0 0.0
2016-Jul-16 09:32N 39°27' W 000°19'0 0.0
2016-Jul-16 08:20N 39°27' W 000°19'0 0.0
2016-Jul-16 07:20N 39°27' W 000°19'0 0.0
2016-Jul-16 06:29N 39°27' W 000°19'0 0.0
2016-Jul-16 04:32N 39°27' W 000°19'0 0.0
2016-Jul-16 03:32N 39°27' W 000°19'0 0.0
2016-Jul-16 02:32N 39°27' W 000°19'0 0.0
2016-Jul-16 01:32N 39°27' W 000°19'0 0.0
2016-Jul-16 00:32N 39°27' W 000°19'0 0.0
2016-Jul-15 23:30N 39°27' W 000°19'4 3.8
2016-Jul-15 22:33N 39°25' W 000°16'1 0.2
2016-Jul-15 17:33N 39°24' W 000°15'0 0.0
2016-Jul-15 14:33N 39°24' W 000°15'0 0.0
2016-Jul-15 13:30N 39°24' W 000°15'0 0.0
2016-Jul-15 12:33N 39°24' W 000°15'0 0.0
2016-Jul-15 11:06N 39°24' W 000°15'0 0.0
2016-Jul-15 10:24N 39°24' W 000°15'0 0.0
2016-Jul-15 09:33N 39°24' W 000°15'0 0.0
2016-Jul-15 08:30N 39°24' W 000°15'0 0.0
2016-Jul-15 07:12N 39°24' W 000°15'0 0.0
2016-Jul-15 06:30N 39°24' W 000°15'0 0.0
2016-Jul-15 05:24N 39°24' W 000°15'0 0.0
2016-Jul-15 04:30N 39°24' W 000°15'0 0.0
2016-Jul-15 03:33N 39°24' W 000°15'0 0.1
2016-Jul-15 02:27N 39°24' W 000°15'  

Dump ship's entire track history